Time;durP1;ratioP1;P1;durP2;ratioP2;P2;SDS_P1;SDS_P2;PMS_P1;PMS_P2;Temp;Humidity;BMP_temperature;BMP_pressure;BME280_temperature;BME280_humidity;BME280_pressure;Samples;Min_cycle;Max_cycle;Signal;HPM_P1;HPM_P2
2024/01/26 00:00:11;;;;;;;12.43;5.78;;;;;;;;;;10260816;28;20080;-63
2024/01/26 00:05:10;;;;;;;11.85;5.85;;;;;;;;;;10260280;28;20072;-63
2024/01/26 00:10:08;;;;;;;13.95;6.30;;;;;;;;;;10258892;28;20080;-63
2024/01/26 00:15:07;;;;;;;20.05;8.23;;;;;;;;;;10258113;28;20076;-63
2024/01/26 00:20:09;;;;;;;9.88;5.25;;;;;;;;;;10259306;28;20465;-63
2024/01/26 00:25:07;;;;;;;13.30;6.30;;;;;;;;;;10265015;28;20100;-61
2024/01/26 00:30:07;;;;;;;10.57;5.78;;;;;;;;;;10260542;28;20080;-62
2024/01/26 00:35:07;;;;;;;14.52;6.28;;;;;;;;;;10259862;28;20076;-61
2024/01/26 00:40:07;;;;;;;15.73;6.28;;;;;;;;;;10259507;28;20080;-61
2024/01/26 00:45:06;;;;;;;16.25;5.53;;;;;;;;;;10258876;28;20069;-62
2024/01/26 00:50:04;;;;;;;14.90;6.72;;;;;;;;;;10258411;28;20076;-62
2024/01/26 00:55:05;;;;;;;11.20;5.75;;;;;;;;;;10257327;28;20474;-62
2024/01/26 01:00:07;;;;;;;9.68;5.18;;;;;;;;;;10258639;28;20455;-62
2024/01/26 01:05:06;;;;;;;15.25;5.53;;;;;;;;;;10255495;28;20068;-62
2024/01/26 01:10:07;;;;;;;11.25;4.85;;;;;;;;;;10257918;28;20080;-62
2024/01/26 01:15:11;;;;;;;12.13;4.75;;;;;;;;;;10257264;28;20080;-62
2024/01/26 01:20:10;;;;;;;12.32;4.90;;;;;;;;;;10257928;28;20103;-62
2024/01/26 01:25:12;;;;;;;13.40;6.60;;;;;;;;;;10257640;28;20065;-62
2024/01/26 01:30:10;;;;;;;11.73;5.10;;;;;;;;;;10256820;28;20076;-63
2024/01/26 01:35:09;;;;;;;9.38;5.00;;;;;;;;;;10257047;28;20429;-63
2024/01/26 01:40:08;;;;;;;16.15;5.72;;;;;;;;;;10256414;28;20080;-63
2024/01/26 01:45:11;;;;;;;10.95;6.15;;;;;;;;;;10258280;28;20099;-63
2024/01/26 01:50:10;;;;;;;11.50;4.90;;;;;;;;;;10256777;28;20072;-63
2024/01/26 01:55:09;;;;;;;8.43;4.45;;;;;;;;;;10271911;28;20091;-63
2024/01/26 02:00:15;;;;;;;10.75;4.18;;;;;;;;;;10256081;28;20518;-61
2024/01/26 02:05:15;;;;;;;9.35;4.38;;;;;;;;;;10255000;28;20084;-62
2024/01/26 02:10:13;;;;;;;8.80;5.70;;;;;;;;;;10255048;28;20076;-62
2024/01/26 02:15:13;;;;;;;13.52;5.38;;;;;;;;;;10255300;28;20068;-61
2024/01/26 02:20:12;;;;;;;22.50;11.20;;;;;;;;;;10254561;28;20068;-62
2024/01/26 02:25:11;;;;;;;10.13;6.47;;;;;;;;;;10255342;28;20080;-62
2024/01/26 02:30:10;;;;;;;13.48;6.18;;;;;;;;;;10255015;28;20573;-62
2024/01/26 02:35:09;;;;;;;9.45;5.82;;;;;;;;;;10254222;28;20077;-62
2024/01/26 02:40:08;;;;;;;11.57;7.10;;;;;;;;;;10254785;28;20065;-63
2024/01/26 02:45:08;;;;;;;12.90;6.25;;;;;;;;;;10254958;28;20041;-63
2024/01/26 02:50:07;;;;;;;20.17;7.47;;;;;;;;;;10253791;28;20069;-62
2024/01/26 02:55:06;;;;;;;13.60;10.65;;;;;;;;;;10254544;28;20080;-63
2024/01/26 03:00:05;;;;;;;16.02;6.13;;;;;;;;;;10256679;28;20161;-62
2024/01/26 03:05:05;;;;;;;13.32;6.53;;;;;;;;;;10252608;28;20073;-62
2024/01/26 03:10:04;;;;;;;10.40;5.55;;;;;;;;;;10251992;28;20088;-63
2024/01/26 03:15:03;;;;;;;10.25;5.35;;;;;;;;;;10251834;28;20091;-63
2024/01/26 03:20:01;;;;;;;6.75;5.38;;;;;;;;;;10259407;28;20073;-62
2024/01/26 03:25:01;;;;;;;11.68;6.80;;;;;;;;;;10259947;28;20486;-62
2024/01/26 03:29:59;;;;;;;10.10;4.72;;;;;;;;;;10260473;28;20083;-62
2024/01/26 03:34:57;;;;;;;9.45;5.43;;;;;;;;;;10260898;28;20072;-62
2024/01/26 03:39:56;;;;;;;13.25;4.35;;;;;;;;;;10261318;28;20076;-63
2024/01/26 03:44:55;;;;;;;14.52;5.57;;;;;;;;;;10262206;28;20475;-63
2024/01/26 03:49:53;;;;;;;8.02;5.63;;;;;;;;;;10262607;28;20076;-62
2024/01/26 03:54:53;;;;;;;13.30;7.22;;;;;;;;;;10261566;28;20073;-63
2024/01/26 03:59:51;;;;;;;12.18;7.05;;;;;;;;;;10261268;28;20091;-63
2024/01/26 04:04:51;;;;;;;17.52;10.30;;;;;;;;;;10260619;28;20088;-62
2024/01/26 04:09:49;;;;;;;12.13;5.75;;;;;;;;;;10255755;28;20077;-63
2024/01/26 04:14:48;;;;;;;12.43;5.93;;;;;;;;;;10255483;28;20064;-62
2024/01/26 04:19:46;;;;;;;18.45;10.27;;;;;;;;;;10256525;28;20096;-62
2024/01/26 04:24:46;;;;;;;11.90;5.85;;;;;;;;;;10260356;28;20076;-62
2024/01/26 04:29:44;;;;;;;9.57;6.50;;;;;;;;;;10259341;28;20068;-63
2024/01/26 04:34:42;;;;;;;13.52;5.38;;;;;;;;;;10259165;28;20068;-62
2024/01/26 04:39:43;;;;;;;9.10;5.07;;;;;;;;;;10258433;28;20336;-63
2024/01/26 04:44:43;;;;;;;10.70;4.68;;;;;;;;;;10258671;28;20064;-62
2024/01/26 04:49:42;;;;;;;9.07;5.45;;;;;;;;;;10260317;28;20073;-62
2024/01/26 04:54:40;;;;;;;12.45;6.15;;;;;;;;;;10258572;28;20103;-63
2024/01/26 04:59:38;;;;;;;9.07;5.90;;;;;;;;;;10258037;28;20076;-62
2024/01/26 05:04:38;;;;;;;12.65;5.45;;;;;;;;;;10257682;28;20560;-61
2024/01/26 05:09:36;;;;;;;13.43;7.03;;;;;;;;;;10257785;28;20474;-62
2024/01/26 05:14:35;;;;;;;11.40;6.18;;;;;;;;;;10259206;28;20080;-62
2024/01/26 05:19:34;;;;;;;10.85;5.60;;;;;;;;;;10253035;28;20495;-62
2024/01/26 05:24:33;;;;;;;10.98;5.07;;;;;;;;;;10256674;28;20079;-61
2024/01/26 05:29:31;;;;;;;9.95;4.72;;;;;;;;;;10253717;28;20077;-62
2024/01/26 05:34:30;;;;;;;9.35;4.90;;;;;;;;;;10256171;28;20041;-61
2024/01/26 05:39:28;;;;;;;12.73;5.47;;;;;;;;;;10255524;28;20076;-62
2024/01/26 05:44:28;;;;;;;10.32;4.25;;;;;;;;;;10254745;28;20069;-62
2024/01/26 05:49:27;;;;;;;12.27;5.30;;;;;;;;;;10253983;28;20514;-63
2024/01/26 05:54:28;;;;;;;13.55;5.57;;;;;;;;;;10252039;28;20083;-63
2024/01/26 05:59:26;;;;;;;10.00;5.05;;;;;;;;;;10251529;28;20077;-63
2024/01/26 06:04:26;;;;;;;10.60;6.22;;;;;;;;;;10252115;28;20080;-62
2024/01/26 06:09:25;;;;;;;11.90;6.18;;;;;;;;;;10256750;28;20080;-63
2024/01/26 06:14:23;;;;;;;16.38;7.78;;;;;;;;;;10255619;28;20110;-63
2024/01/26 06:19:21;;;;;;;14.90;7.57;;;;;;;;;;10255718;28;20654;-61
2024/01/26 06:24:21;;;;;;;17.13;7.50;;;;;;;;;;10255609;28;20076;-62
2024/01/26 06:29:19;;;;;;;10.45;7.65;;;;;;;;;;10249759;28;20072;-61
2024/01/26 06:34:18;;;;;;;17.88;9.35;;;;;;;;;;10249017;28;20073;-62
2024/01/26 06:39:16;;;;;;;16.25;12.63;;;;;;;;;;10253731;28;20089;-62
2024/01/26 06:44:18;;;;;;;72.75;41.00;;;;;;;;;;10255176;28;20079;-63
2024/01/26 06:49:17;;;;;;;17.98;8.00;;;;;;;;;;10245491;28;20045;-63
2024/01/26 06:54:16;;;;;;;9.77;5.40;;;;;;;;;;10253870;28;20068;-63
2024/01/26 06:59:14;;;;;;;10.40;6.57;;;;;;;;;;10254354;28;20076;-61
2024/01/26 07:04:14;;;;;;;13.45;8.02;;;;;;;;;;10253569;28;20072;-62
2024/01/26 07:09:12;;;;;;;16.73;7.97;;;;;;;;;;10254061;28;20095;-62
2024/01/26 07:14:11;;;;;;;15.18;6.70;;;;;;;;;;10253408;28;20501;-64
2024/01/26 07:19:12;;;;;;;20.77;10.38;;;;;;;;;;10253510;28;20085;-61
2024/01/26 07:24:12;;;;;;;18.00;10.55;;;;;;;;;;10254133;28;21032;-62
2024/01/26 07:29:10;;;;;;;22.50;13.50;;;;;;;;;;10253507;28;20068;-62
2024/01/26 07:34:09;;;;;;;26.25;15.10;;;;;;;;;;10253471;28;20498;-62
2024/01/26 07:39:09;;;;;;;14.30;9.00;;;;;;;;;;10259439;28;20081;-62
2024/01/26 07:44:09;;;;;;;14.55;9.05;;;;;;;;;;10252728;28;20491;-62
2024/01/26 07:49:07;;;;;;;12.50;8.68;;;;;;;;;;10253223;28;20065;-62
2024/01/26 07:54:06;;;;;;;17.10;9.07;;;;;;;;;;10253035;28;20072;-62
2024/01/26 07:59:05;;;;;;;15.85;8.55;;;;;;;;;;10252231;28;20077;-62
2024/01/26 08:04:05;;;;;;;18.98;11.75;;;;;;;;;;10256466;28;20541;-62
2024/01/26 08:09:04;;;;;;;13.60;8.18;;;;;;;;;;10260648;28;20462;-62
2024/01/26 08:14:02;;;;;;;17.75;8.18;;;;;;;;;;10259123;28;20593;-62
2024/01/26 08:19:00;;;;;;;17.73;10.52;;;;;;;;;;10259238;28;20514;-62
2024/01/26 08:24:01;;;;;;;16.30;7.68;;;;;;;;;;10259029;28;20080;-62
2024/01/26 08:28:59;;;;;;;14.68;8.65;;;;;;;;;;10258552;28;20427;-63
2024/01/26 08:33:57;;;;;;;16.17;9.52;;;;;;;;;;10258274;28;20069;-63
2024/01/26 08:38:56;;;;;;;13.13;7.57;;;;;;;;;;10257173;28;20083;-62
2024/01/26 08:43:56;;;;;;;12.02;7.90;;;;;;;;;;10259868;28;20061;-62
2024/01/26 08:48:55;;;;;;;15.73;7.90;;;;;;;;;;10259530;28;20064;-62
2024/01/26 08:53:53;;;;;;;11.60;8.65;;;;;;;;;;10270368;28;20068;-62
2024/01/26 08:58:52;;;;;;;15.35;7.07;;;;;;;;;;10267050;28;20077;-62
2024/01/26 09:03:51;;;;;;;25.98;12.15;;;;;;;;;;10264360;28;20077;-62
2024/01/26 09:08:50;;;;;;;24.25;13.52;;;;;;;;;;10266020;28;20513;-62
2024/01/26 09:13:48;;;;;;;11.57;7.70;;;;;;;;;;10258809;28;20065;-62
2024/01/26 09:18:47;;;;;;;16.77;10.25;;;;;;;;;;10257831;28;20529;-63
2024/01/26 09:23:46;;;;;;;16.73;8.25;;;;;;;;;;10260529;28;20368;-63
2024/01/26 09:28:45;;;;;;;12.48;8.48;;;;;;;;;;10257896;28;20061;-61
2024/01/26 09:33:43;;;;;;;14.52;8.88;;;;;;;;;;10254985;28;20077;-62
2024/01/26 09:38:41;;;;;;;12.27;6.30;;;;;;;;;;10255996;28;20081;-62
2024/01/26 09:43:41;;;;;;;10.55;7.40;;;;;;;;;;10256275;28;20080;-61
2024/01/26 09:48:40;;;;;;;12.93;8.77;;;;;;;;;;10256345;28;20072;-62
2024/01/26 09:53:40;;;;;;;18.38;9.90;;;;;;;;;;10254087;28;20100;-62
2024/01/26 09:58:38;;;;;;;19.23;8.65;;;;;;;;;;10256737;28;20091;-62
2024/01/26 10:03:37;;;;;;;15.63;9.13;;;;;;;;;;10256959;28;20108;-63
2024/01/26 10:08:39;;;;;;;19.85;10.02;;;;;;;;;;10251690;28;20072;-62
2024/01/26 10:13:38;;;;;;;12.55;10.15;;;;;;;;;;10254524;28;20073;-62
2024/01/26 10:18:42;;;;;;;20.10;11.85;;;;;;;;;;10253618;28;20494;-62
2024/01/26 10:23:41;;;;;;;17.70;8.65;;;;;;;;;;10255674;28;20073;-61
2024/01/26 10:28:40;;;;;;;21.63;10.30;;;;;;;;;;10256316;28;20066;-61
2024/01/26 10:33:40;;;;;;;15.50;10.27;;;;;;;;;;10254012;28;20471;-62
2024/01/26 10:38:41;;;;;;;20.08;13.65;;;;;;;;;;10253812;28;20490;-61
2024/01/26 10:43:41;;;;;;;21.42;13.25;;;;;;;;;;10254068;28;20538;-62
2024/01/26 10:48:39;;;;;;;15.45;9.57;;;;;;;;;;10253706;28;20060;-61
2024/01/26 10:53:38;;;;;;;9.77;6.63;;;;;;;;;;10256706;28;20502;-62
2024/01/26 10:58:38;;;;;;;13.18;8.20;;;;;;;;;;10253961;28;20076;-62
2024/01/26 11:03:37;;;;;;;24.90;11.95;;;;;;;;;;10252002;28;20068;-63
2024/01/26 11:08:35;;;;;;;15.20;6.40;;;;;;;;;;10251825;28;20072;-63
2024/01/26 11:13:38;;;;;;;20.30;10.85;;;;;;;;;;10254324;28;20443;-63
2024/01/26 11:18:37;;;;;;;12.70;8.85;;;;;;;;;;10254489;28;20081;-62
2024/01/26 11:23:38;;;;;;;9.20;8.27;;;;;;;;;;10253370;28;20076;-62
2024/01/26 11:28:38;;;;;;;25.23;16.27;;;;;;;;;;10251858;28;20061;-62
2024/01/26 11:33:37;;;;;;;11.40;9.10;;;;;;;;;;10256724;28;20144;-63
2024/01/26 11:38:38;;;;;;;12.95;9.00;;;;;;;;;;10254514;28;20081;-62
2024/01/26 11:43:43;;;;;;;8.85;5.68;;;;;;;;;;10259379;28;20077;-62
2024/01/26 11:48:41;;;;;;;11.70;7.25;;;;;;;;;;10260924;28;20111;-62
2024/01/26 11:53:40;;;;;;;11.40;8.20;;;;;;;;;;10260208;28;20911;-62
2024/01/26 11:58:40;;;;;;;8.25;7.40;;;;;;;;;;10259708;28;20077;-64
2024/01/26 12:03:40;;;;;;;14.13;10.38;;;;;;;;;;10259896;28;20111;-63
2024/01/26 12:08:39;;;;;;;10.02;7.97;;;;;;;;;;10266176;28;20080;-62
2024/01/26 12:13:38;;;;;;;9.85;7.40;;;;;;;;;;10274867;28;20081;-62
2024/01/26 12:18:37;;;;;;;12.23;7.40;;;;;;;;;;10258056;28;20123;-62
2024/01/26 12:23:36;;;;;;;11.00;7.15;;;;;;;;;;10260233;28;20084;-63
2024/01/26 12:28:35;;;;;;;10.13;8.30;;;;;;;;;;10258286;28;20072;-63
2024/01/26 12:33:35;;;;;;;10.73;6.70;;;;;;;;;;10257841;28;20076;-63
2024/01/26 12:38:35;;;;;;;11.65;6.18;;;;;;;;;;10258516;28;20091;-62
2024/01/26 12:43:33;;;;;;;11.95;6.63;;;;;;;;;;10259011;28;20537;-62
2024/01/26 12:48:32;;;;;;;13.18;7.45;;;;;;;;;;10258033;28;20073;-62
2024/01/26 12:53:31;;;;;;;9.80;7.20;;;;;;;;;;10259283;28;20100;-63
2024/01/26 12:58:30;;;;;;;16.40;8.45;;;;;;;;;;10259251;28;20084;-63
2024/01/26 13:03:29;;;;;;;9.00;7.15;;;;;;;;;;10257493;28;20073;-63
2024/01/26 13:08:27;;;;;;;9.70;6.75;;;;;;;;;;10257503;28;20072;-62
2024/01/26 13:13:27;;;;;;;16.33;10.85;;;;;;;;;;10257502;28;20064;-61
2024/01/26 13:18:27;;;;;;;14.25;9.10;;;;;;;;;;10264876;28;20084;-62
2024/01/26 13:23:29;;;;;;;16.77;9.83;;;;;;;;;;10257629;28;20546;-64
2024/01/26 13:28:28;;;;;;;11.18;8.98;;;;;;;;;;10257688;28;20088;-62
2024/01/26 13:33:27;;;;;;;10.25;8.38;;;;;;;;;;10256526;28;20068;-62
2024/01/26 13:38:28;;;;;;;10.07;8.30;;;;;;;;;;10261292;28;20101;-62
2024/01/26 13:43:29;;;;;;;17.50;12.48;;;;;;;;;;10255646;28;20072;-62
2024/01/26 13:48:29;;;;;;;10.75;9.63;;;;;;;;;;10254854;28;20064;-63
2024/01/26 13:53:29;;;;;;;14.73;9.27;;;;;;;;;;10256361;28;20084;-62
2024/01/26 13:58:27;;;;;;;19.38;10.27;;;;;;;;;;10255960;28;20075;-63
2024/01/26 14:03:25;;;;;;;13.55;9.70;;;;;;;;;;10254816;28;20072;-63
2024/01/26 14:08:25;;;;;;;26.20;17.30;;;;;;;;;;10255916;28;20076;-63
2024/01/26 14:13:23;;;;;;;16.17;13.55;;;;;;;;;;10254341;28;20455;-63
2024/01/26 14:18:22;;;;;;;10.55;8.80;;;;;;;;;;10254481;28;20451;-62
2024/01/26 14:23:20;;;;;;;17.17;7.75;;;;;;;;;;10251458;28;20069;-61
2024/01/26 14:28:20;;;;;;;18.20;11.88;;;;;;;;;;10255876;28;20065;-62
2024/01/26 14:33:18;;;;;;;24.05;16.27;;;;;;;;;;10255218;28;20084;-62
2024/01/26 14:38:18;;;;;;;29.15;19.35;;;;;;;;;;10254205;28;20072;-62
2024/01/26 14:43:16;;;;;;;20.80;14.38;;;;;;;;;;10253872;28;20091;-63
2024/01/26 14:48:18;;;;;;;19.73;13.25;;;;;;;;;;10254238;28;20077;-61
2024/01/26 14:53:17;;;;;;;27.00;17.33;;;;;;;;;;10248580;28;20076;-62
2024/01/26 14:58:16;;;;;;;26.65;19.13;;;;;;;;;;10250177;28;20088;-63
2024/01/26 15:03:14;;;;;;;26.88;17.63;;;;;;;;;;10249346;28;20079;-63
2024/01/26 15:08:14;;;;;;;20.08;14.07;;;;;;;;;;10250793;28;20069;-63
2024/01/26 15:13:12;;;;;;;24.33;17.52;;;;;;;;;;10254205;28;20065;-63
2024/01/26 15:18:10;;;;;;;21.83;13.15;;;;;;;;;;10259522;28;20088;-63
2024/01/26 15:23:09;;;;;;;20.60;15.18;;;;;;;;;;10261251;28;20084;-64
2024/01/26 15:28:08;;;;;;;29.70;20.92;;;;;;;;;;10261305;28;20069;-62
2024/01/26 15:33:07;;;;;;;32.97;23.50;;;;;;;;;;10260673;28;20076;-62
2024/01/26 15:38:05;;;;;;;24.33;19.05;;;;;;;;;;10261210;28;20072;-62
2024/01/26 15:43:04;;;;;;;32.17;25.55;;;;;;;;;;10259400;28;20102;-64
2024/01/26 15:48:04;;;;;;;34.55;28.00;;;;;;;;;;10259320;28;20079;-62
2024/01/26 15:53:02;;;;;;;31.00;25.15;;;;;;;;;;10258831;28;20073;-62
2024/01/26 15:58:01;;;;;;;36.55;29.30;;;;;;;;;;10259589;28;20088;-62
2024/01/26 16:02:59;;;;;;;31.35;24.00;;;;;;;;;;10259775;28;20084;-62
2024/01/26 16:07:59;;;;;;;28.58;22.08;;;;;;;;;;10255438;28;20065;-62
2024/01/26 16:12:57;;;;;;;29.85;18.95;;;;;;;;;;10254961;28;20069;-62
2024/01/26 16:17:55;;;;;;;27.80;16.83;;;;;;;;;;10254903;28;20083;-61
2024/01/26 16:22:54;;;;;;;21.52;17.08;;;;;;;;;;10256956;28;20087;-63
2024/01/26 16:27:54;;;;;;;20.98;16.13;;;;;;;;;;10249046;28;20073;-62
2024/01/26 16:32:52;;;;;;;17.83;14.27;;;;;;;;;;10246993;28;20437;-63
2024/01/26 16:37:51;;;;;;;19.33;14.38;;;;;;;;;;10249337;28;20069;-64
2024/01/26 16:42:49;;;;;;;24.60;16.38;;;;;;;;;;10258542;28;20076;-64
2024/01/26 16:47:49;;;;;;;25.48;18.30;;;;;;;;;;10259781;28;20073;-62
2024/01/26 16:52:48;;;;;;;36.33;32.30;;;;;;;;;;10259556;28;20072;-61
2024/01/26 16:57:47;;;;;;;17.95;14.32;;;;;;;;;;10257689;28;20529;-62
2024/01/26 17:02:45;;;;;;;14.68;13.27;;;;;;;;;;10257750;28;20501;-62
2024/01/26 17:07:45;;;;;;;11.32;9.48;;;;;;;;;;10259512;28;20069;-62
2024/01/26 17:12:43;;;;;;;18.88;14.10;;;;;;;;;;10257023;28;20454;-61
2024/01/26 17:17:41;;;;;;;17.08;14.85;;;;;;;;;;10262298;28;20391;-63
2024/01/26 17:22:40;;;;;;;38.92;31.35;;;;;;;;;;10257063;28;20076;-62
2024/01/26 17:27:39;;;;;;;19.60;14.30;;;;;;;;;;10259683;28;20465;-61
2024/01/26 17:32:38;;;;;;;17.92;11.07;;;;;;;;;;10258465;28;20085;-61
2024/01/26 17:37:37;;;;;;;16.63;11.88;;;;;;;;;;10256831;28;20506;-62
2024/01/26 17:42:35;;;;;;;12.65;9.40;;;;;;;;;;10268065;28;20064;-61
2024/01/26 17:47:34;;;;;;;14.65;9.98;;;;;;;;;;10260828;28;20084;-62
2024/01/26 17:52:35;;;;;;;32.53;22.45;;;;;;;;;;10263624;28;20076;-61
2024/01/26 17:57:34;;;;;;;29.42;20.27;;;;;;;;;;10246119;28;20529;-60
2024/01/26 18:02:33;;;;;;;21.52;16.98;;;;;;;;;;10248486;28;20124;-60
2024/01/26 18:07:33;;;;;;;34.10;26.67;;;;;;;;;;10255533;28;20072;-59
2024/01/26 18:12:31;;;;;;;35.00;29.10;;;;;;;;;;10254936;28;20060;-60
2024/01/26 18:17:29;;;;;;;23.40;19.40;;;;;;;;;;10259629;28;20500;-60
2024/01/26 18:22:28;;;;;;;16.92;14.60;;;;;;;;;;10256630;28;20084;-61
2024/01/26 18:27:29;;;;;;;16.40;14.60;;;;;;;;;;10239811;28;20103;-61
2024/01/26 18:32:27;;;;;;;24.60;17.10;;;;;;;;;;10258925;28;20584;-60
2024/01/26 18:37:25;;;;;;;27.05;17.42;;;;;;;;;;10255251;28;20080;-59
2024/01/26 18:42:24;;;;;;;20.92;15.40;;;;;;;;;;10256152;28;20076;-59
2024/01/26 18:47:24;;;;;;;17.88;13.57;;;;;;;;;;10253550;28;20068;-61
2024/01/26 18:52:22;;;;;;;17.90;13.75;;;;;;;;;;10251513;28;20076;-61
2024/01/26 18:57:22;;;;;;;24.55;17.17;;;;;;;;;;10255018;28;20075;-59
2024/01/26 19:02:21;;;;;;;23.73;16.40;;;;;;;;;;10258150;28;20114;-60
2024/01/26 19:07:21;;;;;;;24.42;16.48;;;;;;;;;;10253651;28;20073;-60
2024/01/26 19:12:19;;;;;;;27.33;20.52;;;;;;;;;;10256348;28;20079;-59
2024/01/26 19:17:18;;;;;;;26.67;16.42;;;;;;;;;;10252482;28;20085;-59
2024/01/26 19:22:16;;;;;;;24.08;18.30;;;;;;;;;;10244960;28;20112;-60
2024/01/26 19:27:16;;;;;;;47.00;26.85;;;;;;;;;;10254354;28;20061;-60
2024/01/26 19:32:14;;;;;;;79.25;43.25;;;;;;;;;;10254411;28;20076;-60
2024/01/26 19:37:12;;;;;;;84.97;48.05;;;;;;;;;;10257403;28;20526;-59
2024/01/26 19:42:10;;;;;;;23.58;15.50;;;;;;;;;;10254699;28;20065;-60
2024/01/26 19:47:10;;;;;;;33.38;24.17;;;;;;;;;;10254263;28;20069;-59
2024/01/26 19:52:09;;;;;;;109.65;62.90;;;;;;;;;;10250901;28;20065;-61
2024/01/26 19:57:07;;;;;;;176.45;93.95;;;;;;;;;;10240728;28;20076;-60
2024/01/26 20:02:05;;;;;;;142.13;75.10;;;;;;;;;;10257292;28;20064;-60
2024/01/26 20:07:06;;;;;;;158.98;85.65;;;;;;;;;;10268407;28;20080;-59
2024/01/26 20:12:05;;;;;;;141.68;82.80;;;;;;;;;;10277045;28;20075;-60
2024/01/26 20:17:04;;;;;;;161.60;94.50;;;;;;;;;;10269393;28;20077;-59
2024/01/26 20:22:07;;;;;;;211.70;119.80;;;;;;;;;;10266991;28;20365;-60
2024/01/26 20:27:05;;;;;;;146.05;89.18;;;;;;;;;;10262447;28;20069;-61
2024/01/26 20:32:04;;;;;;;19.05;13.68;;;;;;;;;;10273039;28;20072;-60
2024/01/26 20:37:03;;;;;;;15.20;11.05;;;;;;;;;;10262580;28;20104;-60
2024/01/26 20:42:05;;;;;;;21.50;14.45;;;;;;;;;;10264394;28;20462;-60
2024/01/26 20:47:03;;;;;;;41.65;25.80;;;;;;;;;;10272672;28;20071;-60
2024/01/26 20:52:01;;;;;;;17.45;11.02;;;;;;;;;;10274502;28;20706;-61
2024/01/26 20:57:00;;;;;;;15.90;10.93;;;;;;;;;;10268202;28;20060;-60
2024/01/26 21:02:01;;;;;;;11.35;9.02;;;;;;;;;;10250894;28;20079;-59
2024/01/26 21:06:59;;;;;;;14.40;9.13;;;;;;;;;;10272481;28;20065;-61
2024/01/26 21:11:58;;;;;;;14.57;10.32;;;;;;;;;;10252532;28;20068;-59
2024/01/26 21:16:58;;;;;;;15.52;10.40;;;;;;;;;;10266219;28;20077;-60
2024/01/26 21:21:59;;;;;;;13.70;9.18;;;;;;;;;;10251795;28;20127;-59
2024/01/26 21:26:57;;;;;;;11.60;9.10;;;;;;;;;;10247896;28;20140;-60
2024/01/26 21:31:56;;;;;;;13.73;10.35;;;;;;;;;;10250776;28;20532;-59
2024/01/26 21:36:54;;;;;;;10.38;8.45;;;;;;;;;;10257523;28;20079;-61
2024/01/26 21:41:54;;;;;;;13.73;10.10;;;;;;;;;;10270529;28;20068;-59
2024/01/26 21:46:52;;;;;;;11.32;7.97;;;;;;;;;;10251991;28;20065;-59
2024/01/26 21:51:51;;;;;;;10.82;8.85;;;;;;;;;;10247656;28;20083;-61
2024/01/26 21:56:56;;;;;;;10.40;8.00;;;;;;;;;;10271124;28;20058;-61
2024/01/26 22:01:55;;;;;;;17.92;11.13;;;;;;;;;;10259100;28;20167;-61
2024/01/26 22:06:53;;;;;;;13.15;8.80;;;;;;;;;;10258642;28;20095;-61
2024/01/26 22:11:54;;;;;;;11.52;9.43;;;;;;;;;;10268377;28;20087;-61
2024/01/26 22:16:53;;;;;;;12.32;8.63;;;;;;;;;;10273928;28;20494;-61
2024/01/26 22:21:51;;;;;;;10.50;7.28;;;;;;;;;;10258203;28;20080;-62
2024/01/26 22:26:50;;;;;;;15.95;10.05;;;;;;;;;;10261603;28;20080;-61
2024/01/26 22:31:48;;;;;;;9.38;7.53;;;;;;;;;;10256589;28;20517;-61
2024/01/26 22:36:48;;;;;;;13.80;8.55;;;;;;;;;;10281969;28;20076;-61
2024/01/26 22:41:47;;;;;;;14.10;9.70;;;;;;;;;;10265030;28;21217;-61
2024/01/26 22:46:45;;;;;;;12.27;9.30;;;;;;;;;;10251837;28;20067;-62
2024/01/26 22:51:43;;;;;;;13.00;8.10;;;;;;;;;;10266872;28;20092;-61
2024/01/26 22:56:43;;;;;;;11.68;8.15;;;;;;;;;;10262336;28;20316;-61
2024/01/26 23:01:43;;;;;;;218.48;116.43;;;;;;;;;;10258874;28;20083;-61
2024/01/26 23:06:41;;;;;;;64.28;38.53;;;;;;;;;;10254563;28;20091;-61
2024/01/26 23:11:40;;;;;;;21.65;15.70;;;;;;;;;;10247176;28;20076;-61
2024/01/26 23:16:39;;;;;;;19.00;12.15;;;;;;;;;;10243374;28;20096;-61
2024/01/26 23:21:37;;;;;;;46.10;31.35;;;;;;;;;;10242734;28;20070;-62
2024/01/26 23:26:36;;;;;;;47.22;33.55;;;;;;;;;;10244028;28;20077;-62
2024/01/26 23:31:34;;;;;;;73.90;52.42;;;;;;;;;;10250643;28;20502;-62
2024/01/26 23:36:33;;;;;;;35.33;23.30;;;;;;;;;;10263473;28;20562;-62
2024/01/26 23:41:32;;;;;;;24.73;16.35;;;;;;;;;;10256971;28;20709;-62
2024/01/26 23:46:30;;;;;;;17.50;12.60;;;;;;;;;;10256354;28;20076;-62
2024/01/26 23:51:28;;;;;;;18.45;14.32;;;;;;;;;;10259520;28;20487;-62
2024/01/26 23:56:28;;;;;;;15.07;10.07;;;;;;;;;;10259282;28;20083;-61
